White Bluff, TN (37187)

2:18 PM CST on December 17, 2014 (GMT -0600)
White Bluff | Change Station
CLOSE
Current Station
Personal Weather Station
Location: White Bluff, TN
Elevation: 823 ft
Nearby Weather Stations
Active Advisory: Special Statement

Elev 823 ft 36.11 °N, 87.21 °W | Updated 0 second ago

Mostly Cloudy
Mostly Cloudy
40.8 °F
Feels Like 41 °F
N
0.0
Wind Variable Wind from North
Gusts 0.0 mph

Today
High -- | Low -- °F
--% Chance of Precip.
Yesterday
High -- | Low -- °F
Precip. -- in
6:53 AM 4:36 PM
Waning Crescent, 20% visible
Pressure 30.26 in
Visibility 10.0 miles
Clouds Mostly Cloudy 2100 ft
Windchill 41 °F
Dew Point 32 °F
Humidity 71%
Rainfall 0.00 in
Snow Depth Not available.
UV 1 out of 12
Pollen .10 out of 12
Air Quality Not available.
Flu Activity Not available.
METAR KBNA 171953Z 00000KT 10SM BKN021 04/M02 A3025 RMK AO2 SLP247 T00391017

More Conditions Fewer Conditions

Pressure 30.26 in
Visibility 10.0 miles
Clouds Mostly Cloudy 2100 ft
Windchill 41 °F
Dew Point 32 °F
Humidity 71%
Rainfall 0.00 in
Snow Depth Not available.
UV 1 out of 12
Pollen .10 out of 12
Air Quality Not available.
Flu Activity Not available.
METAR KBNA 171953Z 00000KT 10SM BKN021 04/M02 A3025 RMK AO2 SLP247 T00391017

More Conditions Fewer Conditions

10-Day Weather Forecast

Almanac

Astronomy

Dec. 17, 2014 Rise Set
Actual Time
Civil Twilight
Nautical Twilight
Astronomical Twilight
Moon
Length of Visible Light
Length of Day
Tomorrow will be .
, % of the Moon is Illuminated

Today's Extremes

State Highs State Lows

Community

WunderPhotos

Upload Photos

1,778,802 photos uploaded!

WunderBlogs® & News

Nearby

Air Quality

  Air Quality AQ Index Pollutant
Not available.

Snow Depth

Station Depth Elevation

Earthquake Activity

City Distance Mag. Time & Date
Minimum magnitude displayed is 2.5.

Coastal Water Temperatures

Place Temperature

Nearby Weather Stations